Time;durP1;ratioP1;P1;durP2;ratioP2;P2;SDS_P1;SDS_P2;PMS_P1;PMS_P2;Temp;Humidity;BMP_temperature;BMP_pressure;BME280_temperature;BME280_humidity;BME280_pressure;Samples;Min_cycle;Max_cycle;Signal;HPM_P1;HPM_P2
2023/11/29 00:00:49;;;;;;;20.67;11.17;;;4.80;99.90;;;;;;7277792;19;20198;-88
2023/11/29 00:03:15;;;;;;;21.63;12.13;;;4.60;99.90;;;;;;7281956;19;20194;-88
2023/11/29 00:05:41;;;;;;;22.13;11.47;;;4.50;99.90;;;;;;7299640;19;20195;-88
2023/11/29 00:08:07;;;;;;;24.20;11.93;;;4.50;99.90;;;;;;7276588;19;20218;-88
2023/11/29 00:10:33;;;;;;;23.97;11.00;;;4.50;99.90;;;;;;7278722;19;20200;-88
2023/11/29 00:12:59;;;;;;;21.10;11.50;;;4.40;99.90;;;;;;7277082;19;20740;-88
2023/11/29 00:15:25;;;;;;;21.80;11.60;;;4.40;99.90;;;;;;7283572;19;20277;-87
2023/11/29 00:17:50;;;;;;;28.10;12.87;;;4.40;99.90;;;;;;7283072;19;20237;-87
2023/11/29 00:20:16;;;;;;;22.03;11.30;;;4.50;99.90;;;;;;7284740;19;20187;-88
2023/11/29 00:22:42;;;;;;;21.53;11.43;;;4.40;99.90;;;;;;7306421;19;20188;-88
2023/11/29 00:25:08;;;;;;;23.03;11.17;;;4.40;99.90;;;;;;7286146;19;20210;-87
2023/11/29 00:27:34;;;;;;;24.13;11.53;;;4.40;99.90;;;;;;7284386;19;20682;-88
2023/11/29 00:30:02;;;;;;;22.53;11.23;;;4.30;99.90;;;;;;7283134;19;20198;-87
2023/11/29 00:32:28;;;;;;;22.90;11.30;;;4.40;99.90;;;;;;7284038;19;20199;-87
2023/11/29 00:34:54;;;;;;;20.93;10.90;;;4.30;99.90;;;;;;7283466;19;20210;-89
2023/11/29 00:37:21;;;;;;;21.57;10.90;;;4.20;99.90;;;;;;7283729;19;20194;-85
2023/11/29 00:39:47;;;;;;;21.73;12.00;;;4.20;99.90;;;;;;7282403;19;20555;-87
2023/11/29 00:42:13;;;;;;;19.87;10.53;;;4.10;99.90;;;;;;7306140;19;20217;-87
2023/11/29 00:44:39;;;;;;;20.67;11.00;;;4.00;99.90;;;;;;7282919;19;20302;-87
2023/11/29 00:47:04;;;;;;;24.47;11.33;;;4.00;99.90;;;;;;7283391;19;20202;-88
2023/11/29 00:49:30;;;;;;;20.23;10.73;;;3.90;99.90;;;;;;7283202;19;20646;-88
2023/11/29 00:51:56;;;;;;;17.70;10.23;;;3.90;99.90;;;;;;7283787;19;20604;-88
2023/11/29 00:54:22;;;;;;;19.57;10.67;;;3.90;99.90;;;;;;7285512;19;20195;-88
2023/11/29 00:56:47;;;;;;;22.50;10.27;;;3.90;99.90;;;;;;7281663;19;20717;-86
2023/11/29 00:59:13;;;;;;;17.03;10.13;;;4.00;99.90;;;;;;7306077;19;20194;-88
2023/11/29 01:01:40;;;;;;;18.07;9.93;;;4.10;99.90;;;;;;7288130;19;20190;-87
2023/11/29 01:04:06;;;;;;;20.53;10.97;;;4.10;99.90;;;;;;7283728;19;20193;-88
2023/11/29 01:06:32;;;;;;;18.33;10.07;;;4.20;99.90;;;;;;7285681;19;20274;-88
2023/11/29 01:08:57;;;;;;;22.00;10.97;;;4.20;99.90;;;;;;7288467;19;20187;-87
2023/11/29 01:11:26;;;;;;;19.13;10.53;;;4.30;99.90;;;;;;7288468;19;20197;-88
2023/11/29 01:13:52;;;;;;;20.77;9.83;;;4.40;99.90;;;;;;7290211;19;20207;-88
2023/11/29 01:16:17;;;;;;;21.67;10.67;;;4.40;99.90;;;;;;7285777;19;20268;-87
2023/11/29 01:18:43;;;;;;;17.97;9.77;;;4.40;99.90;;;;;;7305597;19;20190;-88
2023/11/29 01:21:13;;;;;;;18.47;9.67;;;4.30;99.90;;;;;;7283771;19;20192;-88
2023/11/29 01:23:39;;;;;;;21.20;10.27;;;4.40;99.90;;;;;;7282176;19;20749;-88
2023/11/29 01:26:05;;;;;;;19.63;10.03;;;4.50;99.90;;;;;;7283540;19;20198;-88
2023/11/29 01:28:31;;;;;;;16.90;9.80;;;4.60;99.90;;;;;;7280625;19;20215;-88
2023/11/29 01:30:57;;;;;;;17.93;9.57;;;4.70;99.90;;;;;;7283827;19;20198;-87
2023/11/29 01:33:23;;;;;;;18.87;9.90;;;4.70;99.90;;;;;;7281732;19;20308;-87
2023/11/29 01:35:49;;;;;;;18.97;9.80;;;4.70;99.90;;;;;;7282269;19;20204;-87
2023/11/29 01:38:15;;;;;;;18.47;9.47;;;4.70;99.90;;;;;;7290915;19;20188;-86
2023/11/29 01:40:40;;;;;;;20.50;10.43;;;4.70;99.90;;;;;;7305300;19;20190;-87
2023/11/29 01:43:06;;;;;;;20.53;10.87;;;4.70;99.90;;;;;;7280246;19;20261;-87
2023/11/29 01:45:32;;;;;;;20.87;10.03;;;4.80;99.90;;;;;;7283637;19;20189;-87
2023/11/29 01:47:58;;;;;;;21.47;10.83;;;4.80;99.90;;;;;;7282270;19;20247;-87
2023/11/29 01:50:28;;;;;;;17.90;10.17;;;4.80;99.90;;;;;;7282040;19;20187;-87
2023/11/29 01:52:55;;;;;;;20.47;11.10;;;4.80;99.90;;;;;;7284072;19;20574;-87
2023/11/29 01:55:22;;;;;;;23.23;10.17;;;4.80;99.90;;;;;;7280862;19;20191;-86
2023/11/29 01:57:52;;;;;;;17.67;10.40;;;4.80;99.90;;;;;;7282003;19;20222;-86
2023/11/29 02:00:18;;;;;;;21.53;11.20;;;4.90;99.90;;;;;;7280860;19;20240;-86
2023/11/29 02:02:44;;;;;;;22.53;11.77;;;4.90;99.90;;;;;;7299807;19;20190;-85
2023/11/29 02:05:10;;;;;;;20.83;11.33;;;4.80;99.90;;;;;;7292197;19;20185;-87
2023/11/29 02:07:36;;;;;;;24.30;12.43;;;4.60;99.90;;;;;;7280608;19;20204;-86
2023/11/29 02:10:04;;;;;;;20.17;11.47;;;4.60;99.90;;;;;;7279544;19;20203;-87
2023/11/29 02:12:32;;;;;;;24.20;11.20;;;4.50;99.90;;;;;;7280663;19;20310;-87
2023/11/29 02:14:58;;;;;;;20.77;11.20;;;4.50;99.90;;;;;;7282292;19;20234;-87
2023/11/29 02:17:24;;;;;;;24.23;11.77;;;4.40;99.90;;;;;;7280042;19;20262;-87
2023/11/29 02:19:51;;;;;;;21.87;11.53;;;4.50;99.90;;;;;;7281096;19;20185;-87
2023/11/29 02:22:18;;;;;;;23.23;12.63;;;4.50;99.90;;;;;;7279810;19;20801;-87
2023/11/29 02:24:47;;;;;;;21.77;11.27;;;4.40;99.90;;;;;;7298846;19;20203;-85
2023/11/29 02:27:13;;;;;;;25.90;12.60;;;4.50;99.90;;;;;;7301807;19;20574;-86
2023/11/29 02:29:39;;;;;;;22.73;12.67;;;4.50;99.90;;;;;;7280238;19;20193;-86
2023/11/29 02:32:06;;;;;;;26.97;12.60;;;4.40;99.90;;;;;;7289461;19;20200;-86
2023/11/29 02:34:32;;;;;;;23.20;12.40;;;4.40;99.90;;;;;;7280731;19;20688;-86
2023/11/29 02:36:58;;;;;;;25.00;13.00;;;4.40;99.90;;;;;;7277826;19;20187;-86
2023/11/29 02:39:24;;;;;;;25.13;12.77;;;4.30;99.90;;;;;;7279627;19;20337;-87
2023/11/29 02:41:49;;;;;;;25.23;12.63;;;4.30;99.90;;;;;;7279255;19;20673;-87
2023/11/29 02:44:15;;;;;;;23.47;12.30;;;4.40;99.90;;;;;;7283941;19;20190;-86
2023/11/29 02:46:42;;;;;;;21.80;12.27;;;4.50;99.90;;;;;;7303408;19;20199;-86
2023/11/29 02:49:08;;;;;;;22.50;12.17;;;4.40;99.90;;;;;;7279454;19;20310;-87
2023/11/29 02:51:33;;;;;;;24.27;12.67;;;4.30;99.90;;;;;;7280197;19;20306;-86
2023/11/29 02:53:59;;;;;;;23.67;12.47;;;4.30;99.90;;;;;;7281732;19;20191;-87
2023/11/29 02:56:25;;;;;;;27.63;12.50;;;4.30;99.90;;;;;;7279693;19;20194;-87
2023/11/29 02:58:51;;;;;;;25.20;12.47;;;4.40;99.90;;;;;;7280722;19;20185;-87
2023/11/29 03:01:16;;;;;;;25.30;12.47;;;4.50;99.90;;;;;;7279390;19;20188;-86
2023/11/29 03:03:42;;;;;;;24.93;12.83;;;4.50;99.90;;;;;;7301009;19;20261;-87
2023/11/29 03:06:08;;;;;;;24.73;12.60;;;4.60;99.90;;;;;;7280234;19;20523;-87
2023/11/29 03:08:34;;;;;;;23.53;12.50;;;4.60;99.90;;;;;;7278898;19;20208;-87
2023/11/29 03:11:01;;;;;;;27.67;12.87;;;4.60;99.90;;;;;;7278964;19;20190;-86
2023/11/29 03:13:28;;;;;;;21.57;11.60;;;4.50;99.90;;;;;;7279928;19;20226;-86
2023/11/29 03:15:54;;;;;;;23.33;10.97;;;4.50;99.90;;;;;;7277957;19;20204;-87
2023/11/29 03:18:20;;;;;;;21.13;11.40;;;4.50;99.90;;;;;;7280653;19;20190;-87
2023/11/29 03:20:46;;;;;;;22.13;11.80;;;4.50;99.90;;;;;;7279173;19;20189;-86
2023/11/29 03:23:12;;;;;;;20.87;10.73;;;4.50;99.90;;;;;;7300195;19;20193;-87
2023/11/29 03:25:38;;;;;;;23.63;10.50;;;4.60;99.90;;;;;;7280342;19;20676;-86
2023/11/29 03:28:04;;;;;;;19.73;10.37;;;4.60;99.90;;;;;;7281626;19;20206;-87
2023/11/29 03:30:30;;;;;;;23.57;10.87;;;4.70;99.90;;;;;;7281960;19;20193;-87
2023/11/29 03:32:56;;;;;;;23.50;10.53;;;4.80;99.90;;;;;;7280948;19;20202;-87
2023/11/29 03:35:22;;;;;;;21.83;11.10;;;4.90;99.90;;;;;;7279516;19;20190;-86
2023/11/29 03:37:48;;;;;;;18.17;9.57;;;4.80;99.90;;;;;;7278674;19;20267;-87
2023/11/29 03:40:14;;;;;;;21.70;10.57;;;4.70;99.90;;;;;;7300395;19;20188;-84
2023/11/29 03:42:40;;;;;;;21.10;10.10;;;4.70;99.90;;;;;;7288506;19;20196;-87
2023/11/29 03:45:06;;;;;;;21.90;9.63;;;4.50;99.90;;;;;;7279367;19;20213;-87
2023/11/29 03:47:32;;;;;;;18.13;9.23;;;4.40;99.90;;;;;;7278874;19;20666;-86
2023/11/29 03:49:57;;;;;;;18.13;8.73;;;4.40;99.90;;;;;;7280641;19;20202;-87
2023/11/29 03:52:24;;;;;;;18.53;8.97;;;4.40;99.90;;;;;;7285207;19;20271;-86
2023/11/29 03:54:51;;;;;;;18.43;8.30;;;4.60;99.90;;;;;;7283063;19;20185;-87
2023/11/29 03:57:18;;;;;;;18.40;8.70;;;4.60;99.90;;;;;;7284395;19;20188;-87
2023/11/29 03:59:44;;;;;;;17.73;8.83;;;4.60;99.90;;;;;;7310231;19;20207;-84
2023/11/29 04:02:10;;;;;;;22.07;8.30;;;4.70;99.90;;;;;;7301393;19;20205;-86
2023/11/29 04:04:37;;;;;;;19.83;8.87;;;4.60;99.90;;;;;;7286274;19;20209;-87
2023/11/29 04:07:03;;;;;;;17.13;7.67;;;4.70;99.90;;;;;;7290114;19;20686;-86
2023/11/29 04:09:30;;;;;;;18.50;8.43;;;4.80;99.90;;;;;;7284792;19;20213;-87
2023/11/29 04:11:55;;;;;;;18.67;8.70;;;4.80;99.90;;;;;;7285544;19;20207;-87
2023/11/29 04:14:21;;;;;;;14.87;8.17;;;4.90;99.90;;;;;;7284613;19;20185;-87
2023/11/29 04:16:47;;;;;;;19.20;7.73;;;4.90;99.90;;;;;;7283744;19;20198;-87
2023/11/29 04:19:13;;;;;;;19.03;8.20;;;4.90;99.90;;;;;;7305674;19;20244;-86
2023/11/29 04:21:40;;;;;;;16.07;7.73;;;5.00;99.90;;;;;;7284456;19;20215;-87
2023/11/29 04:24:06;;;;;;;15.13;7.60;;;5.00;99.90;;;;;;7285004;19;20187;-87
2023/11/29 04:26:34;;;;;;;15.80;7.43;;;5.10;99.90;;;;;;7284880;19;20800;-87
2023/11/29 04:29:02;;;;;;;17.43;7.73;;;5.20;99.90;;;;;;7284256;19;20197;-87
2023/11/29 04:31:29;;;;;;;17.57;7.60;;;5.20;99.90;;;;;;7284910;19;20573;-87
2023/11/29 04:33:55;;;;;;;17.90;7.77;;;5.20;99.90;;;;;;7283498;19;20199;-87
2023/11/29 04:36:21;;;;;;;17.70;6.93;;;5.20;99.90;;;;;;7283454;19;20522;-88
2023/11/29 04:38:52;;;;;;;22.53;7.47;;;5.20;99.90;;;;;;7284291;19;20199;-87
2023/11/29 04:41:22;;;;;;;14.97;7.40;;;5.30;99.90;;;;;;7281582;19;20203;-87
2023/11/29 04:43:49;;;;;;;13.33;6.90;;;5.30;99.90;;;;;;7282951;19;20223;-87
2023/11/29 04:46:15;;;;;;;16.23;7.77;;;5.30;99.90;;;;;;7297890;19;20204;-87
2023/11/29 04:48:43;;;;;;;16.13;7.07;;;5.30;99.90;;;;;;7304601;19;20199;-86
2023/11/29 04:51:09;;;;;;;14.63;7.30;;;5.40;99.90;;;;;;7281918;19;20882;-86
2023/11/29 04:53:38;;;;;;;17.10;7.63;;;5.40;99.90;;;;;;7284516;19;20201;-87
2023/11/29 04:56:04;;;;;;;17.30;8.10;;;5.40;99.90;;;;;;7284636;19;20195;-87
2023/11/29 04:58:30;;;;;;;19.37;8.53;;;5.50;99.90;;;;;;7283702;19;20421;-86
2023/11/29 05:00:55;;;;;;;19.90;7.77;;;5.50;99.90;;;;;;7281211;19;20190;-86
2023/11/29 05:03:21;;;;;;;16.43;8.03;;;5.50;99.90;;;;;;7281306;19;20656;-86
2023/11/29 05:05:48;;;;;;;18.10;8.37;;;5.40;99.90;;;;;;7283024;19;20191;-87
2023/11/29 05:08:14;;;;;;;15.17;7.13;;;5.30;99.90;;;;;;7304691;19;20548;-86
2023/11/29 05:10:41;;;;;;;19.83;7.80;;;5.30;99.90;;;;;;7282684;19;20195;-86
2023/11/29 05:13:07;;;;;;;16.63;7.10;;;5.10;99.90;;;;;;7282733;19;20204;-87
2023/11/29 05:15:36;;;;;;;16.37;8.00;;;4.80;99.90;;;;;;7281148;19;20219;-87
2023/11/29 05:18:03;;;;;;;17.90;8.27;;;4.70;99.90;;;;;;7282735;19;20282;-87
2023/11/29 05:20:29;;;;;;;17.97;8.60;;;4.80;99.90;;;;;;7281653;19;20191;-88
2023/11/29 05:22:55;;;;;;;17.90;8.50;;;4.80;99.90;;;;;;7281705;19;20199;-87
2023/11/29 05:25:21;;;;;;;17.63;8.47;;;4.80;99.90;;;;;;7281676;19;20735;-87
2023/11/29 05:27:47;;;;;;;17.07;8.37;;;4.80;99.90;;;;;;7282769;19;20228;-87
2023/11/29 05:30:13;;;;;;;19.17;8.67;;;4.80;99.90;;;;;;7314404;19;20227;-88
2023/11/29 05:32:39;;;;;;;21.23;8.53;;;4.70;99.90;;;;;;7281408;19;20207;-88
2023/11/29 05:35:05;;;;;;;18.90;9.37;;;4.70;99.90;;;;;;7281147;19;20228;-87
2023/11/29 05:37:31;;;;;;;20.87;9.93;;;4.60;99.90;;;;;;7281851;19;20203;-88
2023/11/29 05:39:57;;;;;;;20.23;10.03;;;4.40;99.90;;;;;;7282126;19;20299;-88
2023/11/29 05:42:23;;;;;;;19.30;9.80;;;4.40;99.90;;;;;;7281643;19;20194;-88
2023/11/29 05:44:49;;;;;;;21.70;9.87;;;4.10;99.90;;;;;;7281256;19;20735;-88
2023/11/29 05:47:16;;;;;;;19.87;9.47;;;4.20;99.90;;;;;;7291197;19;20186;-86
2023/11/29 05:49:42;;;;;;;20.97;10.60;;;4.20;99.90;;;;;;7303192;19;20192;-86
2023/11/29 05:52:08;;;;;;;20.10;10.57;;;4.20;99.90;;;;;;7280229;19;20211;-86
2023/11/29 05:54:33;;;;;;;19.57;10.23;;;4.20;99.90;;;;;;7280012;19;20196;-86
2023/11/29 05:56:59;;;;;;;19.70;11.10;;;4.30;99.90;;;;;;7282184;19;20493;-85
2023/11/29 05:59:26;;;;;;;22.47;10.63;;;4.40;99.90;;;;;;7279152;19;20200;-84
2023/11/29 06:01:54;;;;;;;19.33;9.83;;;4.40;99.90;;;;;;7281302;19;20192;-84
2023/11/29 06:04:21;;;;;;;20.40;10.60;;;4.40;99.90;;;;;;7279677;19;20227;-85
2023/11/29 06:06:47;;;;;;;20.13;10.43;;;4.40;99.90;;;;;;7279662;19;20209;-90
2023/11/29 06:09:14;;;;;;;22.87;10.17;;;4.40;99.90;;;;;;7304403;19;20296;-90
2023/11/29 06:11:41;;;;;;;23.43;11.00;;;4.50;99.90;;;;;;7280208;19;20205;-90
2023/11/29 06:14:07;;;;;;;20.00;10.83;;;4.60;99.90;;;;;;7282156;19;20253;-88
2023/11/29 06:16:33;;;;;;;19.33;10.70;;;4.60;99.90;;;;;;7281565;19;20240;-90
2023/11/29 06:18:59;;;;;;;18.60;11.07;;;4.70;99.90;;;;;;7281644;19;20189;-91
2023/11/29 06:21:25;;;;;;;20.73;10.97;;;4.70;99.90;;;;;;7284151;19;20226;-91
2023/11/29 06:23:51;;;;;;;20.67;11.43;;;4.70;99.90;;;;;;7281156;19;20223;-92
2023/11/29 06:26:18;;;;;;;20.83;11.70;;;4.70;99.90;;;;;;7281802;19;20199;-87
2023/11/29 06:28:44;;;;;;;17.77;10.30;;;4.70;99.90;;;;;;7303143;19;20215;-86
2023/11/29 06:31:11;;;;;;;17.57;10.83;;;4.60;99.90;;;;;;7282686;19;20192;-89
2023/11/29 06:33:37;;;;;;;23.27;10.97;;;4.50;99.90;;;;;;7281349;19;20213;-92
2023/11/29 06:36:04;;;;;;;23.03;10.83;;;4.40;99.90;;;;;;7280222;19;20548;-89
2023/11/29 06:38:31;;;;;;;21.03;10.97;;;4.40;99.90;;;;;;7281106;19;20581;-91
2023/11/29 06:40:57;;;;;;;19.17;10.53;;;4.40;99.90;;;;;;7281998;19;20319;-95
2023/11/29 06:43:23;;;;;;;24.60;11.53;;;4.40;99.90;;;;;;7279910;19;20198;-81
2023/11/29 06:45:49;;;;;;;24.33;10.53;;;4.30;99.90;;;;;;7279929;19;20323;-85
2023/11/29 06:48:16;;;;;;;21.53;10.10;;;4.40;99.90;;;;;;7291184;19;20193;-82
2023/11/29 06:50:42;;;;;;;22.33;10.23;;;4.30;99.90;;;;;;7301012;19;20735;-83
2023/11/29 06:53:09;;;;;;;23.40;10.73;;;4.30;99.90;;;;;;7278839;19;20567;-84
2023/11/29 06:55:34;;;;;;;22.10;9.40;;;4.20;99.90;;;;;;7274650;19;20198;-80
2023/11/29 06:58:00;;;;;;;21.50;10.03;;;4.20;99.90;;;;;;7276691;19;20195;-81
2023/11/29 07:00:26;;;;;;;22.47;10.40;;;4.20;99.90;;;;;;7279474;19;20578;-80
2023/11/29 07:02:52;;;;;;;23.80;9.97;;;4.20;99.90;;;;;;7277823;19;20210;-81
2023/11/29 07:05:17;;;;;;;22.30;9.57;;;4.30;99.90;;;;;;7277745;19;20204;-80
2023/11/29 07:07:46;;;;;;;27.30;10.17;;;4.20;99.90;;;;;;7290825;19;20206;-80
2023/11/29 07:10:13;;;;;;;22.53;9.23;;;4.20;99.90;;;;;;7298624;19;20205;-81
2023/11/29 07:12:38;;;;;;;23.73;9.30;;;4.20;99.90;;;;;;7274643;19;20257;-83
2023/11/29 07:15:05;;;;;;;22.43;9.67;;;4.20;99.90;;;;;;7277644;19;21116;-81
2023/11/29 07:17:31;;;;;;;18.20;8.70;;;4.30;99.90;;;;;;7276759;19;20541;-84
2023/11/29 07:19:56;;;;;;;17.90;8.40;;;4.20;99.90;;;;;;7275669;19;20224;-80
2023/11/29 07:22:24;;;;;;;17.20;8.50;;;4.20;99.90;;;;;;7275627;19;20738;-82
2023/11/29 07:24:50;;;;;;;21.57;9.37;;;4.20;99.90;;;;;;7283919;19;20192;-82
2023/11/29 07:27:16;;;;;;;22.53;9.70;;;4.30;99.90;;;;;;7286947;19;20188;-82
2023/11/29 07:29:41;;;;;;;21.73;8.47;;;4.30;99.90;;;;;;7306413;19;20695;-82
2023/11/29 07:32:07;;;;;;;19.80;8.87;;;4.20;99.90;;;;;;7284585;19;20186;-82
2023/11/29 07:34:33;;;;;;;21.60;8.67;;;4.20;99.90;;;;;;7283099;19;20194;-85
2023/11/29 07:37:00;;;;;;;20.23;8.93;;;4.20;99.90;;;;;;7284314;19;20214;-82
2023/11/29 07:39:28;;;;;;;19.83;8.63;;;4.20;99.90;;;;;;7283556;19;20181;-82
2023/11/29 07:41:54;;;;;;;20.47;8.23;;;4.30;99.90;;;;;;7281338;19;21074;-81
2023/11/29 07:44:21;;;;;;;21.87;8.90;;;4.30;99.90;;;;;;7283044;19;20181;-82
2023/11/29 07:46:49;;;;;;;20.13;8.80;;;4.30;99.90;;;;;;7283887;19;20194;-83
2023/11/29 07:49:15;;;;;;;25.00;9.37;;;4.30;99.90;;;;;;7300269;19;20212;-81
2023/11/29 07:51:45;;;;;;;22.83;8.70;;;4.40;99.90;;;;;;7299089;19;20188;-81
2023/11/29 07:54:12;;;;;;;24.43;8.60;;;4.40;99.90;;;;;;7283980;19;20525;-82
2023/11/29 07:56:38;;;;;;;20.00;8.43;;;4.40;99.90;;;;;;7282770;19;20198;-81
2023/11/29 07:59:05;;;;;;;25.47;9.07;;;4.50;99.90;;;;;;7285700;19;20214;-81
2023/11/29 08:01:31;;;;;;;19.13;8.40;;;4.50;99.90;;;;;;7287427;19;20228;-81
2023/11/29 08:03:57;;;;;;;24.27;8.87;;;4.40;99.90;;;;;;7284179;19;20188;-81
2023/11/29 08:06:23;;;;;;;23.13;9.27;;;4.40;99.90;;;;;;7288887;19;20219;-81
2023/11/29 08:08:49;;;;;;;19.03;8.53;;;4.40;99.90;;;;;;7290221;19;20196;-81
2023/11/29 08:11:15;;;;;;;22.97;8.73;;;4.40;99.90;;;;;;7301769;19;20205;-81
2023/11/29 08:13:41;;;;;;;22.23;9.00;;;4.50;99.90;;;;;;7303609;19;20199;-81
2023/11/29 08:16:07;;;;;;;22.23;9.47;;;4.50;99.90;;;;;;7283916;19;20207;-81
2023/11/29 08:18:33;;;;;;;22.73;8.90;;;4.60;99.90;;;;;;7289305;19;20225;-82
2023/11/29 08:20:58;;;;;;;24.87;9.27;;;4.60;99.90;;;;;;7286366;19;20195;-80
2023/11/29 08:23:24;;;;;;;24.90;8.33;;;4.50;99.90;;;;;;7286542;19;20606;-81
2023/11/29 08:25:50;;;;;;;20.93;8.47;;;4.60;99.90;;;;;;7285712;19;20564;-81
2023/11/29 08:28:16;;;;;;;20.00;8.43;;;4.60;99.90;;;;;;7288959;19;20253;-82
2023/11/29 08:30:42;;;;;;;27.17;9.07;;;4.70;99.90;;;;;;7303107;19;20193;-82
2023/11/29 08:33:11;;;;;;;23.00;9.63;;;4.80;99.90;;;;;;7282436;19;20913;-81
2023/11/29 08:35:37;;;;;;;27.90;9.70;;;4.80;99.90;;;;;;7279292;19;20206;-81
2023/11/29 08:38:03;;;;;;;23.30;9.10;;;4.90;99.90;;;;;;7282479;19;20192;-83
2023/11/29 08:40:29;;;;;;;23.17;9.07;;;4.90;99.90;;;;;;7282706;19;20209;-82
2023/11/29 08:43:00;;;;;;;27.27;9.47;;;4.90;99.90;;;;;;7282165;19;20192;-82
2023/11/29 08:45:25;;;;;;;20.20;9.10;;;4.90;99.90;;;;;;7280428;19;20195;-81
2023/11/29 08:47:51;;;;;;;22.50;8.40;;;4.90;99.90;;;;;;7281756;19;20216;-81
2023/11/29 08:50:17;;;;;;;23.13;8.83;;;5.00;99.90;;;;;;7281024;19;20210;-81
2023/11/29 08:52:43;;;;;;;21.67;8.40;;;5.10;99.90;;;;;;7304943;19;20246;-81
2023/11/29 08:55:10;;;;;;;20.17;8.37;;;5.10;99.90;;;;;;7281497;19;20195;-83
2023/11/29 08:57:36;;;;;;;24.60;8.70;;;5.20;99.90;;;;;;7281051;19;20684;-82
2023/11/29 09:00:04;;;;;;;21.13;8.63;;;5.20;99.90;;;;;;7282514;19;20189;-83
2023/11/29 09:02:29;;;;;;;19.20;8.27;;;5.10;99.90;;;;;;7281103;19;20193;-81
2023/11/29 09:04:55;;;;;;;24.53;8.57;;;5.10;99.90;;;;;;7281202;19;20204;-81
2023/11/29 09:07:22;;;;;;;17.13;7.70;;;5.20;99.90;;;;;;7281600;19;20201;-80
2023/11/29 09:09:47;;;;;;;22.70;8.73;;;5.30;99.90;;;;;;7281278;19;20288;-82
2023/11/29 09:12:17;;;;;;;23.90;8.57;;;5.40;99.90;;;;;;7301181;19;20270;-82
2023/11/29 09:14:43;;;;;;;22.70;8.47;;;5.40;99.90;;;;;;7280715;19;20209;-82
2023/11/29 09:17:10;;;;;;;20.10;8.60;;;5.50;99.90;;;;;;7279916;19;20185;-82
2023/11/29 09:19:36;;;;;;;21.17;8.33;;;5.50;99.90;;;;;;7282539;19;20627;-81
2023/11/29 09:22:05;;;;;;;20.40;7.87;;;5.50;99.90;;;;;;7280112;19;20230;-81
2023/11/29 09:24:31;;;;;;;23.13;8.50;;;5.40;99.90;;;;;;7280459;19;20191;-82
2023/11/29 09:26:57;;;;;;;19.13;7.70;;;5.50;99.90;;;;;;7279273;19;20202;-80
2023/11/29 09:29:28;;;;;;;20.60;7.80;;;5.50;99.90;;;;;;7281919;19;20188;-81
2023/11/29 09:31:54;;;;;;;18.53;8.10;;;5.60;99.90;;;;;;7281624;19;20904;-80
2023/11/29 09:34:20;;;;;;;22.63;7.67;;;5.60;99.90;;;;;;7280685;19;20192;-80
2023/11/29 09:36:46;;;;;;;23.07;7.50;;;5.70;99.90;;;;;;7284340;19;20722;-81
2023/11/29 09:39:13;;;;;;;17.30;7.03;;;5.70;99.90;;;;;;7304278;19;20194;-82
2023/11/29 09:41:39;;;;;;;17.73;7.20;;;5.80;99.90;;;;;;7280668;19;20273;-81
2023/11/29 09:44:05;;;;;;;19.93;7.50;;;5.90;99.90;;;;;;7281176;19;20197;-81
2023/11/29 09:46:31;;;;;;;16.87;6.87;;;6.00;99.90;;;;;;7277505;19;20187;-81
2023/11/29 09:49:00;;;;;;;14.87;7.10;;;6.10;99.90;;;;;;7279508;19;20198;-82
2023/11/29 09:51:27;;;;;;;17.37;6.80;;;6.20;99.90;;;;;;7279328;19;20188;-82
2023/11/29 09:53:52;;;;;;;20.90;7.13;;;6.20;99.90;;;;;;7279772;19;20664;-82
2023/11/29 09:56:19;;;;;;;17.23;6.63;;;6.30;99.90;;;;;;7277653;19;20203;-82
2023/11/29 09:58:45;;;;;;;15.47;6.80;;;6.30;99.90;;;;;;7299911;19;20310;-82
2023/11/29 10:01:12;;;;;;;15.33;6.30;;;6.40;99.90;;;;;;7279389;19;20189;-82
2023/11/29 10:03:38;;;;;;;14.50;6.00;;;6.60;99.90;;;;;;7278892;19;20240;-81
2023/11/29 10:06:04;;;;;;;14.17;5.67;;;7.40;99.90;;;;;;7279879;19;20193;-81
2023/11/29 10:08:30;;;;;;;11.20;4.90;;;8.60;99.90;;;;;;7277500;19;20197;-82
2023/11/29 10:10:56;;;;;;;12.80;4.80;;;9.80;99.90;;;;;;7278258;19;20534;-82
2023/11/29 10:13:22;;;;;;;11.27;4.50;;;11.10;99.90;;;;;;7279481;19;20737;-82
2023/11/29 10:15:50;;;;;;;10.80;4.03;;;12.00;99.90;;;;;;7278167;19;20192;-81
2023/11/29 10:18:17;;;;;;;9.30;4.50;;;12.70;99.90;;;;;;7292696;19;20532;-82
2023/11/29 10:20:52;;;;;;;11.17;4.77;;;12.90;99.90;;;;;;7303072;19;20184;-82
2023/11/29 10:23:18;;;;;;;10.20;4.30;;;12.20;99.90;;;;;;7257621;19;20188;-82
2023/11/29 10:25:44;;;;;;;12.33;4.67;;;11.60;99.90;;;;;;7302074;19;20192;-82
2023/11/29 10:28:11;;;;;;;15.40;4.87;;;12.10;99.90;;;;;;7278361;19;20481;-83
2023/11/29 10:30:38;;;;;;;11.87;4.40;;;12.80;99.90;;;;;;7278994;19;20203;-82
2023/11/29 10:33:05;;;;;;;13.73;4.57;;;12.80;99.90;;;;;;7278996;19;20192;-82
2023/11/29 10:35:35;;;;;;;13.70;4.60;;;12.70;99.90;;;;;;7278587;19;20189;-82
2023/11/29 10:38:18;;;;;;;11.70;4.60;;;12.90;99.90;;;;;;7277984;19;20193;-82
2023/11/29 10:40:45;;;;;;;13.50;4.47;;;13.90;99.90;;;;;;7280359;19;20198;-82
2023/11/29 10:43:16;;;;;;;14.13;4.03;;;13.70;99.90;;;;;;7279014;19;20342;-82
2023/11/29 10:45:43;;;;;;;9.70;4.40;;;13.80;99.90;;;;;;7279150;19;20240;-82
2023/11/29 10:48:23;;;;;;;14.40;4.83;;;15.10;99.90;;;;;;7278371;19;20191;-82
2023/11/29 10:50:49;;;;;;;14.07;4.60;;;15.40;99.90;;;;;;7257042;19;20208;-82
2023/11/29 10:53:19;;;;;;;11.30;4.27;;;16.30;99.90;;;;;;7294376;19;20196;-83
2023/11/29 10:55:45;;;;;;;15.57;4.73;;;17.00;99.90;;;;;;7298512;19;20178;-83
2023/11/29 10:58:20;;;;;;;13.47;4.70;;;17.40;99.90;;;;;;7276622;19;20190;-83
2023/11/29 11:00:46;;;;;;;10.50;4.00;;;16.70;99.90;;;;;;7270666;19;20664;-82
2023/11/29 11:03:40;;;;;;;15.47;5.07;;;16.70;99.90;;;;;;7296965;19;20208;-83
2023/11/29 11:06:26;;;;;;;11.13;4.33;;;17.20;99.90;;;;;;7177380;19;2004637;-84
2023/11/29 11:08:56;;;;;;;12.03;4.37;;;17.80;99.90;;;;;;7174927;19;2004825;-82
2023/11/29 11:11:46;;;;;;;9.93;4.10;;;18.20;99.90;;;;;;7277882;19;20614;-82
2023/11/29 11:14:23;;;;;;;14.23;4.40;;;18.00;99.90;;;;;;7277992;19;20210;-83
2023/11/29 11:16:59;;;;;;;12.67;4.20;;;17.80;99.90;;;;;;7253934;19;20204;-82
2023/11/29 11:19:35;;;;;;;13.23;4.63;;;17.50;99.90;;;;;;7278378;19;20674;-82
2023/11/29 11:22:02;;;;;;;8.93;4.00;;;17.00;99.90;;;;;;7278166;19;20227;-81
2023/11/29 11:24:59;;;;;;;16.20;4.80;;;16.20;99.90;;;;;;7277149;19;20799;-82
2023/11/29 11:27:35;;;;;;;10.67;4.10;;;15.60;99.90;;;;;;7175628;19;2004990;-83
2023/11/29 11:30:25;;;;;;;11.47;4.33;;;14.50;99.90;;;;;;7274694;19;20294;-83
2023/11/29 11:32:53;;;;;;;12.27;4.40;;;14.20;99.90;;;;;;7176275;19;2004628;-83
2023/11/29 11:35:25;;;;;;;16.23;4.50;;;14.40;99.90;;;;;;7276618;19;20218;-83
2023/11/29 11:37:58;;;;;;;15.87;4.73;;;14.40;99.90;;;;;;7277968;19;20198;-83
2023/11/29 11:40:32;;;;;;;10.47;4.23;;;14.30;99.90;;;;;;7278464;19;20202;-82
2023/11/29 11:42:59;;;;;;;8.83;3.67;;;14.70;99.90;;;;;;7276093;19;20662;-83
2023/11/29 11:45:32;;;;;;;11.07;4.03;;;14.80;99.90;;;;;;7278754;19;20185;-83
2023/11/29 11:48:03;;;;;;;11.40;3.40;;;15.20;99.90;;;;;;7276951;19;20212;-82
2023/11/29 11:50:29;;;;;;;11.67;3.97;;;14.40;99.90;;;;;;7276446;19;20198;-83
2023/11/29 11:52:59;;;;;;;10.97;4.33;;;14.10;99.90;;;;;;7276633;19;20730;-83
2023/11/29 11:55:31;;;;;;;9.27;3.90;;;14.20;99.90;;;;;;7274968;19;20199;-84
2023/11/29 11:57:59;;;;;;;12.83;4.30;;;14.30;99.90;;;;;;7274928;19;20194;-83
2023/11/29 12:00:27;;;;;;;10.63;3.70;;;14.00;99.90;;;;;;7274150;19;20287;-85
2023/11/29 12:02:54;;;;;;;12.60;4.10;;;13.50;99.90;;;;;;7276605;19;20205;-86
2023/11/29 12:05:21;;;;;;;12.30;4.23;;;13.10;99.90;;;;;;7276224;19;20766;-85
2023/11/29 12:07:48;;;;;;;14.97;4.57;;;12.40;99.90;;;;;;7283170;19;20185;-85
2023/11/29 12:10:15;;;;;;;14.40;4.47;;;12.20;99.90;;;;;;7302356;19;20191;-85
2023/11/29 12:12:43;;;;;;;10.37;4.20;;;12.50;99.90;;;;;;7283528;19;20181;-84
2023/11/29 12:15:14;;;;;;;11.90;3.90;;;12.70;99.90;;;;;;7281311;19;20675;-84
2023/11/29 12:17:40;;;;;;;11.60;3.97;;;12.50;99.90;;;;;;7283156;19;20647;-83
2023/11/29 12:20:06;;;;;;;13.53;3.90;;;11.70;99.90;;;;;;7282295;19;20235;-83
2023/11/29 12:22:33;;;;;;;13.13;4.27;;;11.30;99.90;;;;;;7283142;19;20192;-83
2023/11/29 12:24:59;;;;;;;11.13;3.70;;;11.20;99.90;;;;;;7282813;19;20198;-83
2023/11/29 12:27:27;;;;;;;10.60;4.00;;;10.60;99.90;;;;;;7282537;19;20240;-83
2023/11/29 12:29:59;;;;;;;10.37;4.07;;;10.30;99.90;;;;;;7283935;19;20689;-83
2023/11/29 12:32:28;;;;;;;12.80;4.37;;;9.80;99.90;;;;;;7281934;19;20192;-83
2023/11/29 12:34:59;;;;;;;11.37;4.00;;;9.80;99.90;;;;;;7282618;19;20175;-83
2023/11/29 12:37:26;;;;;;;13.20;3.83;;;9.40;99.90;;;;;;7284486;19;20186;-83
2023/11/29 12:39:57;;;;;;;13.90;4.03;;;9.30;99.90;;;;;;7284083;19;20182;-83